sensor_id;sensor_type;location;lat;lon;timestamp;P1;durP1;ratioP1;P2;durP2;ratioP2
38238;SDS011;24035;48.900;9.188;2022-08-01T00:00:23;3.10;;;1.20;;
38238;SDS011;24035;48.900;9.188;2022-08-01T00:03:10;2.67;;;1.05;;
38238;SDS011;24035;48.900;9.188;2022-08-01T00:05:56;2.08;;;0.88;;
38238;SDS011;24035;48.900;9.188;2022-08-01T00:08:41;1.95;;;0.85;;
38238;SDS011;24035;48.900;9.188;2022-08-01T00:11:27;1.73;;;0.80;;
38238;SDS011;24035;48.900;9.188;2022-08-01T00:14:13;2.10;;;0.90;;
38238;SDS011;24035;48.900;9.188;2022-08-01T00:16:59;2.28;;;1.00;;
38238;SDS011;24035;48.900;9.188;2022-08-01T00:19:45;1.85;;;0.93;;
38238;SDS011;24035;48.900;9.188;2022-08-01T00:22:31;3.83;;;1.20;;
38238;SDS011;24035;48.900;9.188;2022-08-01T00:25:18;2.67;;;0.95;;
38238;SDS011;24035;48.900;9.188;2022-08-01T00:28:04;2.70;;;1.10;;
38238;SDS011;24035;48.900;9.188;2022-08-01T00:30:53;3.47;;;1.13;;
38238;SDS011;24035;48.900;9.188;2022-08-01T00:33:39;2.38;;;1.10;;
38238;SDS011;24035;48.900;9.188;2022-08-01T00:36:25;2.70;;;1.13;;
38238;SDS011;24035;48.900;9.188;2022-08-01T00:39:11;2.42;;;1.33;;
38238;SDS011;24035;48.900;9.188;2022-08-01T00:41:57;1.63;;;0.80;;
38238;SDS011;24035;48.900;9.188;2022-08-01T00:44:43;2.10;;;1.00;;
38238;SDS011;24035;48.900;9.188;2022-08-01T00:47:29;1.77;;;0.80;;
38238;SDS011;24035;48.900;9.188;2022-08-01T00:50:15;1.75;;;0.73;;
38238;SDS011;24035;48.900;9.188;2022-08-01T00:53:02;2.38;;;1.00;;
38238;SDS011;24035;48.900;9.188;2022-08-01T00:55:48;2.50;;;1.10;;
38238;SDS011;24035;48.900;9.188;2022-08-01T00:58:34;2.97;;;1.10;;
38238;SDS011;24035;48.900;9.188;2022-08-01T01:01:19;2.42;;;1.08;;
38238;SDS011;24035;48.900;9.188;2022-08-01T01:04:06;2.35;;;1.20;;
38238;SDS011;24035;48.900;9.188;2022-08-01T01:10:03;2.80;;;1.05;;
38238;SDS011;24035;48.900;9.188;2022-08-01T01:13:09;3.67;;;1.13;;
38238;SDS011;24035;48.900;9.188;2022-08-01T01:15:59;2.78;;;1.08;;
38238;SDS011;24035;48.900;9.188;2022-08-01T01:18:56;1.77;;;0.90;;
38238;SDS011;24035;48.900;9.188;2022-08-01T01:24:58;2.90;;;1.15;;
38238;SDS011;24035;48.900;9.188;2022-08-01T01:31:11;3.05;;;1.20;;
38238;SDS011;24035;48.900;9.188;2022-08-01T01:33:59;2.42;;;1.05;;
38238;SDS011;24035;48.900;9.188;2022-08-01T01:36:49;2.33;;;1.00;;
38238;SDS011;24035;48.900;9.188;2022-08-01T01:39:38;2.55;;;1.00;;
38238;SDS011;24035;48.900;9.188;2022-08-01T01:42:26;2.88;;;1.20;;
38238;SDS011;24035;48.900;9.188;2022-08-01T01:45:13;2.70;;;0.95;;
38238;SDS011;24035;48.900;9.188;2022-08-01T01:48:00;2.50;;;1.00;;
38238;SDS011;24035;48.900;9.188;2022-08-01T01:50:47;2.17;;;1.10;;
38238;SDS011;24035;48.900;9.188;2022-08-01T01:53:34;2.20;;;0.98;;
38238;SDS011;24035;48.900;9.188;2022-08-01T01:56:21;3.22;;;1.20;;
38238;SDS011;24035;48.900;9.188;2022-08-01T01:59:09;2.13;;;1.20;;
38238;SDS011;24035;48.900;9.188;2022-08-01T02:01:56;3.28;;;1.35;;
38238;SDS011;24035;48.900;9.188;2022-08-01T02:04:46;2.28;;;1.05;;
38238;SDS011;24035;48.900;9.188;2022-08-01T02:07:33;2.53;;;1.00;;
38238;SDS011;24035;48.900;9.188;2022-08-01T02:10:22;2.88;;;1.30;;
38238;SDS011;24035;48.900;9.188;2022-08-01T02:13:09;2.53;;;1.10;;
38238;SDS011;24035;48.900;9.188;2022-08-01T02:15:56;2.70;;;1.15;;
38238;SDS011;24035;48.900;9.188;2022-08-01T02:18:42;1.83;;;0.82;;
38238;SDS011;24035;48.900;9.188;2022-08-01T02:24:54;2.63;;;1.40;;
38238;SDS011;24035;48.900;9.188;2022-08-01T02:27:53;3.15;;;1.13;;
38238;SDS011;24035;48.900;9.188;2022-08-01T02:30:47;2.05;;;1.00;;
38238;SDS011;24035;48.900;9.188;2022-08-01T02:33:39;4.07;;;1.40;;
38238;SDS011;24035;48.900;9.188;2022-08-01T02:36:29;2.38;;;0.85;;
38238;SDS011;24035;48.900;9.188;2022-08-01T02:39:19;3.13;;;1.10;;
38238;SDS011;24035;48.900;9.188;2022-08-01T02:42:07;2.45;;;1.13;;
38238;SDS011;24035;48.900;9.188;2022-08-01T02:44:56;2.70;;;1.10;;
38238;SDS011;24035;48.900;9.188;2022-08-01T02:47:42;2.17;;;0.90;;
38238;SDS011;24035;48.900;9.188;2022-08-01T02:50:30;3.33;;;1.27;;
38238;SDS011;24035;48.900;9.188;2022-08-01T02:53:19;3.33;;;1.25;;
38238;SDS011;24035;48.900;9.188;2022-08-01T02:56:08;2.20;;;1.00;;
38238;SDS011;24035;48.900;9.188;2022-08-01T02:58:56;2.03;;;1.00;;
38238;SDS011;24035;48.900;9.188;2022-08-01T03:01:43;2.70;;;1.10;;
38238;SDS011;24035;48.900;9.188;2022-08-01T03:04:31;4.00;;;0.90;;
38238;SDS011;24035;48.900;9.188;2022-08-01T03:07:19;6.45;;;1.27;;
38238;SDS011;24035;48.900;9.188;2022-08-01T03:10:06;2.67;;;1.17;;
38238;SDS011;24035;48.900;9.188;2022-08-01T03:12:53;2.38;;;1.05;;
38238;SDS011;24035;48.900;9.188;2022-08-01T03:15:41;2.58;;;1.27;;
38238;SDS011;24035;48.900;9.188;2022-08-01T03:18:28;2.53;;;1.00;;
38238;SDS011;24035;48.900;9.188;2022-08-01T03:21:16;2.70;;;1.20;;
38238;SDS011;24035;48.900;9.188;2022-08-01T03:24:04;3.05;;;1.30;;
38238;SDS011;24035;48.900;9.188;2022-08-01T03:26:52;2.70;;;0.95;;
38238;SDS011;24035;48.900;9.188;2022-08-01T03:29:40;3.50;;;1.33;;
38238;SDS011;24035;48.900;9.188;2022-08-01T03:32:27;3.50;;;1.55;;
38238;SDS011;24035;48.900;9.188;2022-08-01T03:35:15;3.95;;;1.08;;
38238;SDS011;24035;48.900;9.188;2022-08-01T03:38:01;2.75;;;1.08;;
38238;SDS011;24035;48.900;9.188;2022-08-01T03:43:40;2.72;;;1.20;;
38238;SDS011;24035;48.900;9.188;2022-08-01T03:46:35;2.63;;;1.40;;
38238;SDS011;24035;48.900;9.188;2022-08-01T03:49:29;2.85;;;1.35;;
38238;SDS011;24035;48.900;9.188;2022-08-01T03:52:17;3.40;;;1.38;;
38238;SDS011;24035;48.900;9.188;2022-08-01T03:55:05;3.33;;;1.40;;
38238;SDS011;24035;48.900;9.188;2022-08-01T03:57:52;3.78;;;1.27;;
38238;SDS011;24035;48.900;9.188;2022-08-01T04:00:39;3.08;;;1.05;;
38238;SDS011;24035;48.900;9.188;2022-08-01T04:03:26;4.35;;;1.40;;
38238;SDS011;24035;48.900;9.188;2022-08-01T04:06:13;3.08;;;0.95;;
38238;SDS011;24035;48.900;9.188;2022-08-01T04:08:59;1.90;;;1.00;;
38238;SDS011;24035;48.900;9.188;2022-08-01T04:11:45;2.75;;;1.20;;
38238;SDS011;24035;48.900;9.188;2022-08-01T04:14:31;3.25;;;1.10;;
38238;SDS011;24035;48.900;9.188;2022-08-01T04:17:17;3.00;;;1.08;;
38238;SDS011;24035;48.900;9.188;2022-08-01T04:20:03;2.90;;;1.27;;
38238;SDS011;24035;48.900;9.188;2022-08-01T04:22:49;3.17;;;1.20;;
38238;SDS011;24035;48.900;9.188;2022-08-01T04:25:35;4.50;;;1.15;;
38238;SDS011;24035;48.900;9.188;2022-08-01T04:28:25;2.53;;;1.10;;
38238;SDS011;24035;48.900;9.188;2022-08-01T04:31:11;2.47;;;1.00;;
38238;SDS011;24035;48.900;9.188;2022-08-01T04:34:02;1.98;;;0.85;;
38238;SDS011;24035;48.900;9.188;2022-08-01T04:36:51;2.42;;;1.15;;
38238;SDS011;24035;48.900;9.188;2022-08-01T04:39:40;5.00;;;1.00;;
38238;SDS011;24035;48.900;9.188;2022-08-01T04:42:28;2.78;;;1.13;;
38238;SDS011;24035;48.900;9.188;2022-08-01T04:45:14;2.63;;;1.00;;
38238;SDS011;24035;48.900;9.188;2022-08-01T04:48:00;2.13;;;1.00;;
38238;SDS011;24035;48.900;9.188;2022-08-01T04:50:47;3.05;;;1.25;;
38238;SDS011;24035;48.900;9.188;2022-08-01T04:53:33;3.58;;;1.15;;
38238;SDS011;24035;48.900;9.188;2022-08-01T04:56:19;1.55;;;0.80;;
38238;SDS011;24035;48.900;9.188;2022-08-01T04:59:05;2.50;;;1.10;;
38238;SDS011;24035;48.900;9.188;2022-08-01T05:02:11;3.20;;;1.08;;
38238;SDS011;24035;48.900;9.188;2022-08-01T05:05:01;2.50;;;1.25;;
38238;SDS011;24035;48.900;9.188;2022-08-01T05:07:47;2.47;;;1.05;;
38238;SDS011;24035;48.900;9.188;2022-08-01T05:10:33;2.72;;;1.00;;
38238;SDS011;24035;48.900;9.188;2022-08-01T05:13:19;2.58;;;1.10;;
38238;SDS011;24035;48.900;9.188;2022-08-01T05:16:05;1.70;;;0.80;;
38238;SDS011;24035;48.900;9.188;2022-08-01T05:18:52;2.13;;;0.90;;
38238;SDS011;24035;48.900;9.188;2022-08-01T05:21:38;2.38;;;0.82;;
38238;SDS011;24035;48.900;9.188;2022-08-01T05:24:24;2.97;;;0.90;;
38238;SDS011;24035;48.900;9.188;2022-08-01T05:27:10;4.80;;;1.15;;
38238;SDS011;24035;48.900;9.188;2022-08-01T05:29:56;2.20;;;0.90;;
38238;SDS011;24035;48.900;9.188;2022-08-01T05:32:41;1.65;;;0.75;;
38238;SDS011;24035;48.900;9.188;2022-08-01T05:35:27;3.35;;;0.80;;
38238;SDS011;24035;48.900;9.188;2022-08-01T05:38:13;1.58;;;0.73;;
38238;SDS011;24035;48.900;9.188;2022-08-01T05:40:59;3.63;;;1.00;;
38238;SDS011;24035;48.900;9.188;2022-08-01T05:43:45;2.08;;;0.80;;
38238;SDS011;24035;48.900;9.188;2022-08-01T05:46:31;1.65;;;0.68;;
38238;SDS011;24035;48.900;9.188;2022-08-01T05:49:18;3.25;;;1.00;;
38238;SDS011;24035;48.900;9.188;2022-08-01T05:52:04;2.35;;;0.80;;
38238;SDS011;24035;48.900;9.188;2022-08-01T05:54:50;1.98;;;0.90;;
38238;SDS011;24035;48.900;9.188;2022-08-01T05:57:36;1.88;;;0.73;;
38238;SDS011;24035;48.900;9.188;2022-08-01T06:00:22;2.35;;;1.10;;
38238;SDS011;24035;48.900;9.188;2022-08-01T06:03:08;1.73;;;0.75;;
38238;SDS011;24035;48.900;9.188;2022-08-01T06:05:54;2.10;;;0.90;;
38238;SDS011;24035;48.900;9.188;2022-08-01T06:08:40;2.08;;;0.82;;
38238;SDS011;24035;48.900;9.188;2022-08-01T06:11:26;3.67;;;0.85;;
38238;SDS011;24035;48.900;9.188;2022-08-01T06:14:12;1.33;;;0.70;;
38238;SDS011;24035;48.900;9.188;2022-08-01T06:16:58;1.88;;;0.68;;
38238;SDS011;24035;48.900;9.188;2022-08-01T06:19:44;1.52;;;0.77;;
38238;SDS011;24035;48.900;9.188;2022-08-01T06:22:30;1.83;;;0.70;;
38238;SDS011;24035;48.900;9.188;2022-08-01T06:25:16;2.25;;;0.90;;
38238;SDS011;24035;48.900;9.188;2022-08-01T06:28:02;1.52;;;0.70;;
38238;SDS011;24035;48.900;9.188;2022-08-01T06:30:48;1.98;;;0.55;;
38238;SDS011;24035;48.900;9.188;2022-08-01T06:33:34;1.25;;;0.65;;
38238;SDS011;24035;48.900;9.188;2022-08-01T06:36:20;1.88;;;0.70;;
38238;SDS011;24035;48.900;9.188;2022-08-01T06:39:06;2.33;;;0.85;;
38238;SDS011;24035;48.900;9.188;2022-08-01T06:41:31;1.55;;;0.70;;
38238;SDS011;24035;48.900;9.188;2022-08-01T06:43:57;1.88;;;0.70;;
38238;SDS011;24035;48.900;9.188;2022-08-01T06:46:24;2.35;;;0.70;;
38238;SDS011;24035;48.900;9.188;2022-08-01T06:48:50;2.25;;;0.70;;
38238;SDS011;24035;48.900;9.188;2022-08-01T06:51:16;1.48;;;0.70;;
38238;SDS011;24035;48.900;9.188;2022-08-01T06:53:44;2.22;;;0.80;;
38238;SDS011;24035;48.900;9.188;2022-08-01T06:56:10;1.40;;;0.60;;
38238;SDS011;24035;48.900;9.188;2022-08-01T06:58:36;1.30;;;0.65;;
38238;SDS011;24035;48.900;9.188;2022-08-01T07:01:03;2.03;;;0.75;;
38238;SDS011;24035;48.900;9.188;2022-08-01T07:03:31;1.70;;;0.77;;
38238;SDS011;24035;48.900;9.188;2022-08-01T07:05:57;1.70;;;0.70;;
38238;SDS011;24035;48.900;9.188;2022-08-01T07:08:22;1.63;;;0.77;;
38238;SDS011;24035;48.900;9.188;2022-08-01T07:10:48;2.28;;;0.70;;
38238;SDS011;24035;48.900;9.188;2022-08-01T07:13:14;2.28;;;0.80;;
38238;SDS011;24035;48.900;9.188;2022-08-01T07:15:45;2.22;;;1.10;;
38238;SDS011;24035;48.900;9.188;2022-08-01T07:18:11;2.05;;;0.73;;
38238;SDS011;24035;48.900;9.188;2022-08-01T07:20:37;2.22;;;0.60;;
38238;SDS011;24035;48.900;9.188;2022-08-01T07:23:03;2.13;;;0.82;;
38238;SDS011;24035;48.900;9.188;2022-08-01T07:25:29;1.98;;;0.88;;
38238;SDS011;24035;48.900;9.188;2022-08-01T07:27:55;1.95;;;0.80;;
38238;SDS011;24035;48.900;9.188;2022-08-01T07:30:20;1.35;;;0.60;;
38238;SDS011;24035;48.900;9.188;2022-08-01T07:32:46;1.33;;;0.70;;
38238;SDS011;24035;48.900;9.188;2022-08-01T07:35:12;1.45;;;0.70;;
38238;SDS011;24035;48.900;9.188;2022-08-01T07:37:38;1.63;;;0.65;;
38238;SDS011;24035;48.900;9.188;2022-08-01T07:40:04;2.25;;;0.88;;
38238;SDS011;24035;48.900;9.188;2022-08-01T07:42:30;1.48;;;0.70;;
38238;SDS011;24035;48.900;9.188;2022-08-01T07:44:58;2.00;;;0.70;;
38238;SDS011;24035;48.900;9.188;2022-08-01T07:47:24;3.35;;;0.98;;
38238;SDS011;24035;48.900;9.188;2022-08-01T07:49:51;2.80;;;0.93;;
38238;SDS011;24035;48.900;9.188;2022-08-01T07:52:18;2.03;;;0.82;;
38238;SDS011;24035;48.900;9.188;2022-08-01T07:54:45;3.50;;;0.90;;
38238;SDS011;24035;48.900;9.188;2022-08-01T07:57:13;2.03;;;0.80;;
38238;SDS011;24035;48.900;9.188;2022-08-01T07:59:38;2.53;;;0.98;;
38238;SDS011;24035;48.900;9.188;2022-08-01T08:02:04;2.13;;;0.98;;
38238;SDS011;24035;48.900;9.188;2022-08-01T08:04:30;1.80;;;0.75;;
38238;SDS011;24035;48.900;9.188;2022-08-01T08:06:55;2.03;;;0.75;;
38238;SDS011;24035;48.900;9.188;2022-08-01T08:09:21;5.68;;;0.80;;
38238;SDS011;24035;48.900;9.188;2022-08-01T08:11:47;2.78;;;0.90;;
38238;SDS011;24035;48.900;9.188;2022-08-01T08:14:14;4.72;;;0.85;;
38238;SDS011;24035;48.900;9.188;2022-08-01T08:16:43;1.30;;;0.60;;
38238;SDS011;24035;48.900;9.188;2022-08-01T08:19:09;1.60;;;0.75;;
38238;SDS011;24035;48.900;9.188;2022-08-01T08:21:35;2.95;;;1.13;;
38238;SDS011;24035;48.900;9.188;2022-08-01T08:24:01;2.63;;;1.05;;
38238;SDS011;24035;48.900;9.188;2022-08-01T08:26:45;3.38;;;0.80;;
38238;SDS011;24035;48.900;9.188;2022-08-01T08:29:16;1.75;;;0.75;;
38238;SDS011;24035;48.900;9.188;2022-08-01T08:31:42;2.42;;;1.00;;
38238;SDS011;24035;48.900;9.188;2022-08-01T08:34:08;2.97;;;0.80;;
38238;SDS011;24035;48.900;9.188;2022-08-01T08:36:33;4.55;;;0.80;;
38238;SDS011;24035;48.900;9.188;2022-08-01T08:38:59;4.20;;;0.82;;
38238;SDS011;24035;48.900;9.188;2022-08-01T08:41:25;1.67;;;0.65;;
38238;SDS011;24035;48.900;9.188;2022-08-01T08:43:51;1.45;;;0.70;;
38238;SDS011;24035;48.900;9.188;2022-08-01T08:46:18;1.33;;;0.60;;
38238;SDS011;24035;48.900;9.188;2022-08-01T08:48:45;1.52;;;0.70;;
38238;SDS011;24035;48.900;9.188;2022-08-01T08:51:13;1.80;;;0.88;;
38238;SDS011;24035;48.900;9.188;2022-08-01T08:53:42;1.98;;;0.80;;
38238;SDS011;24035;48.900;9.188;2022-08-01T08:56:14;1.77;;;0.90;;
38238;SDS011;24035;48.900;9.188;2022-08-01T08:58:41;4.28;;;1.02;;
38238;SDS011;24035;48.900;9.188;2022-08-01T09:01:12;2.17;;;0.90;;
38238;SDS011;24035;48.900;9.188;2022-08-01T09:03:39;2.80;;;1.10;;
38238;SDS011;24035;48.900;9.188;2022-08-01T09:06:06;3.80;;;1.77;;
38238;SDS011;24035;48.900;9.188;2022-08-01T09:08:32;4.60;;;1.65;;
38238;SDS011;24035;48.900;9.188;2022-08-01T09:10:58;6.63;;;2.03;;
38238;SDS011;24035;48.900;9.188;2022-08-01T09:13:24;4.60;;;2.13;;
38238;SDS011;24035;48.900;9.188;2022-08-01T09:15:53;6.38;;;2.00;;
38238;SDS011;24035;48.900;9.188;2022-08-01T09:23:35;3.60;;;1.80;;
38238;SDS011;24035;48.900;9.188;2022-08-01T09:26:05;3.75;;;1.85;;
38238;SDS011;24035;48.900;9.188;2022-08-01T09:28:32;5.70;;;2.10;;
38238;SDS011;24035;48.900;9.188;2022-08-01T09:30:58;5.10;;;1.88;;
38238;SDS011;24035;48.900;9.188;2022-08-01T09:33:24;3.53;;;1.60;;
38238;SDS011;24035;48.900;9.188;2022-08-01T09:35:54;3.60;;;1.55;;
38238;SDS011;24035;48.900;9.188;2022-08-01T09:38:25;3.10;;;1.50;;
38238;SDS011;24035;48.900;9.188;2022-08-01T09:40:55;9.38;;;2.08;;
38238;SDS011;24035;48.900;9.188;2022-08-01T09:43:23;3.75;;;1.73;;
38238;SDS011;24035;48.900;9.188;2022-08-01T09:45:50;5.35;;;2.05;;
38238;SDS011;24035;48.900;9.188;2022-08-01T09:48:19;3.22;;;1.25;;
38238;SDS011;24035;48.900;9.188;2022-08-01T09:50:47;3.10;;;1.23;;
38238;SDS011;24035;48.900;9.188;2022-08-01T09:53:13;2.88;;;1.30;;
38238;SDS011;24035;48.900;9.188;2022-08-01T09:55:41;2.55;;;1.23;;
38238;SDS011;24035;48.900;9.188;2022-08-01T09:58:07;3.85;;;1.67;;
38238;SDS011;24035;48.900;9.188;2022-08-01T10:00:35;4.43;;;1.25;;
38238;SDS011;24035;48.900;9.188;2022-08-01T10:03:21;3.45;;;1.27;;
38238;SDS011;24035;48.900;9.188;2022-08-01T10:05:49;2.60;;;1.13;;
38238;SDS011;24035;48.900;9.188;2022-08-01T10:08:18;2.30;;;0.95;;
38238;SDS011;24035;48.900;9.188;2022-08-01T10:13:46;3.20;;;1.10;;
38238;SDS011;24035;48.900;9.188;2022-08-01T10:16:13;2.30;;;1.00;;
38238;SDS011;24035;48.900;9.188;2022-08-01T10:18:42;2.10;;;1.00;;
38238;SDS011;24035;48.900;9.188;2022-08-01T10:21:09;2.58;;;1.08;;
38238;SDS011;24035;48.900;9.188;2022-08-01T10:23:37;1.92;;;0.95;;
38238;SDS011;24035;48.900;9.188;2022-08-01T10:26:04;3.30;;;1.15;;
38238;SDS011;24035;48.900;9.188;2022-08-01T10:28:31;3.70;;;1.20;;
38238;SDS011;24035;48.900;9.188;2022-08-01T10:30:59;2.20;;;1.10;;
38238;SDS011;24035;48.900;9.188;2022-08-01T10:33:26;4.00;;;0.90;;
38238;SDS011;24035;48.900;9.188;2022-08-01T10:35:54;2.72;;;1.02;;
38238;SDS011;24035;48.900;9.188;2022-08-01T10:38:20;2.58;;;1.08;;
38238;SDS011;24035;48.900;9.188;2022-08-01T10:40:48;2.97;;;1.35;;
38238;SDS011;24035;48.900;9.188;2022-08-01T10:43:15;2.55;;;1.17;;
38238;SDS011;24035;48.900;9.188;2022-08-01T10:45:44;2.35;;;1.02;;
38238;SDS011;24035;48.900;9.188;2022-08-01T10:48:24;2.10;;;1.02;;
38238;SDS011;24035;48.900;9.188;2022-08-01T10:50:58;3.65;;;1.50;;
38238;SDS011;24035;48.900;9.188;2022-08-01T10:53:27;2.05;;;1.00;;
38238;SDS011;24035;48.900;9.188;2022-08-01T11:00:47;3.95;;;1.30;;
38238;SDS011;24035;48.900;9.188;2022-08-01T11:03:13;3.25;;;1.20;;
38238;SDS011;24035;48.900;9.188;2022-08-01T11:05:38;2.55;;;1.23;;
38238;SDS011;24035;48.900;9.188;2022-08-01T11:08:10;2.53;;;1.00;;
38238;SDS011;24035;48.900;9.188;2022-08-01T11:10:47;1.83;;;0.80;;
38238;SDS011;24035;48.900;9.188;2022-08-01T11:13:13;2.15;;;1.00;;
38238;SDS011;24035;48.900;9.188;2022-08-01T11:15:39;4.03;;;1.20;;
38238;SDS011;24035;48.900;9.188;2022-08-01T11:21:15;3.80;;;1.05;;
38238;SDS011;24035;48.900;9.188;2022-08-01T11:23:47;2.75;;;1.00;;
38238;SDS011;24035;48.900;9.188;2022-08-01T11:26:14;1.85;;;0.88;;
38238;SDS011;24035;48.900;9.188;2022-08-01T11:28:41;2.20;;;1.17;;
38238;SDS011;24035;48.900;9.188;2022-08-01T11:38:35;5.10;;;1.02;;
38238;SDS011;24035;48.900;9.188;2022-08-01T11:41:12;2.45;;;1.00;;
38238;SDS011;24035;48.900;9.188;2022-08-01T11:43:55;2.22;;;1.00;;
38238;SDS011;24035;48.900;9.188;2022-08-01T11:52:01;3.08;;;1.02;;
38238;SDS011;24035;48.900;9.188;2022-08-01T11:54:29;2.50;;;1.20;;
38238;SDS011;24035;48.900;9.188;2022-08-01T11:57:00;2.53;;;0.80;;
38238;SDS011;24035;48.900;9.188;2022-08-01T11:59:41;2.65;;;1.10;;
38238;SDS011;24035;48.900;9.188;2022-08-01T12:04:46;2.08;;;1.00;;
38238;SDS011;24035;48.900;9.188;2022-08-01T12:07:16;2.15;;;1.05;;
38238;SDS011;24035;48.900;9.188;2022-08-01T12:09:43;2.45;;;1.10;;
38238;SDS011;24035;48.900;9.188;2022-08-01T12:12:09;5.18;;;1.10;;
38238;SDS011;24035;48.900;9.188;2022-08-01T12:14:37;2.72;;;0.80;;
38238;SDS011;24035;48.900;9.188;2022-08-01T12:17:03;2.20;;;1.05;;
38238;SDS011;24035;48.900;9.188;2022-08-01T12:19:29;3.17;;;1.17;;
38238;SDS011;24035;48.900;9.188;2022-08-01T12:22:08;2.83;;;1.00;;
38238;SDS011;24035;48.900;9.188;2022-08-01T12:24:37;2.53;;;1.23;;
38238;SDS011;24035;48.900;9.188;2022-08-01T12:27:05;2.85;;;0.93;;
38238;SDS011;24035;48.900;9.188;2022-08-01T12:29:36;2.33;;;1.10;;
38238;SDS011;24035;48.900;9.188;2022-08-01T12:34:51;1.75;;;0.82;;
38238;SDS011;24035;48.900;9.188;2022-08-01T12:37:17;2.20;;;1.05;;
38238;SDS011;24035;48.900;9.188;2022-08-01T12:39:44;2.10;;;0.95;;
38238;SDS011;24035;48.900;9.188;2022-08-01T12:42:11;2.00;;;0.80;;
38238;SDS011;24035;48.900;9.188;2022-08-01T12:44:37;1.88;;;0.90;;
38238;SDS011;24035;48.900;9.188;2022-08-01T12:47:07;3.40;;;1.00;;
38238;SDS011;24035;48.900;9.188;2022-08-01T12:49:37;5.05;;;1.17;;
38238;SDS011;24035;48.900;9.188;2022-08-01T12:52:03;2.38;;;0.95;;
38238;SDS011;24035;48.900;9.188;2022-08-01T12:54:30;3.42;;;0.90;;
38238;SDS011;24035;48.900;9.188;2022-08-01T12:57:22;2.65;;;1.10;;
38238;SDS011;24035;48.900;9.188;2022-08-01T12:59:52;2.60;;;0.82;;
38238;SDS011;24035;48.900;9.188;2022-08-01T13:02:18;2.65;;;0.90;;
38238;SDS011;24035;48.900;9.188;2022-08-01T13:04:50;2.17;;;1.00;;
38238;SDS011;24035;48.900;9.188;2022-08-01T13:07:16;2.67;;;1.10;;
38238;SDS011;24035;48.900;9.188;2022-08-01T13:09:49;2.00;;;0.90;;
38238;SDS011;24035;48.900;9.188;2022-08-01T13:12:16;1.88;;;0.85;;
38238;SDS011;24035;48.900;9.188;2022-08-01T13:14:42;2.28;;;1.00;;
38238;SDS011;24035;48.900;9.188;2022-08-01T13:17:07;2.28;;;1.00;;
38238;SDS011;24035;48.900;9.188;2022-08-01T13:19:43;3.78;;;1.17;;
38238;SDS011;24035;48.900;9.188;2022-08-01T13:22:09;2.47;;;0.85;;
38238;SDS011;24035;48.900;9.188;2022-08-01T13:24:35;2.17;;;1.00;;
38238;SDS011;24035;48.900;9.188;2022-08-01T13:27:02;2.85;;;1.00;;
38238;SDS011;24035;48.900;9.188;2022-08-01T13:29:33;1.40;;;0.60;;
38238;SDS011;24035;48.900;9.188;2022-08-01T13:32:15;1.80;;;0.90;;
38238;SDS011;24035;48.900;9.188;2022-08-01T13:34:46;1.67;;;0.70;;
38238;SDS011;24035;48.900;9.188;2022-08-01T13:37:11;1.70;;;0.73;;
38238;SDS011;24035;48.900;9.188;2022-08-01T13:39:37;1.85;;;0.82;;
38238;SDS011;24035;48.900;9.188;2022-08-01T13:42:06;2.35;;;1.05;;
38238;SDS011;24035;48.900;9.188;2022-08-01T13:44:36;1.52;;;0.68;;
38238;SDS011;24035;48.900;9.188;2022-08-01T13:47:02;3.17;;;1.08;;
38238;SDS011;24035;48.900;9.188;2022-08-01T13:49:29;2.30;;;0.93;;
38238;SDS011;24035;48.900;9.188;2022-08-01T13:51:54;1.25;;;0.65;;
38238;SDS011;24035;48.900;9.188;2022-08-01T13:54:20;2.30;;;0.90;;
38238;SDS011;24035;48.900;9.188;2022-08-01T13:56:46;2.22;;;0.90;;
38238;SDS011;24035;48.900;9.188;2022-08-01T13:59:11;2.40;;;1.00;;
38238;SDS011;24035;48.900;9.188;2022-08-01T14:01:38;1.42;;;0.60;;
38238;SDS011;24035;48.900;9.188;2022-08-01T14:04:04;1.60;;;0.70;;
38238;SDS011;24035;48.900;9.188;2022-08-01T14:06:30;2.03;;;0.88;;
38238;SDS011;24035;48.900;9.188;2022-08-01T14:08:57;2.58;;;1.00;;
38238;SDS011;24035;48.900;9.188;2022-08-01T14:11:23;1.63;;;0.77;;
38238;SDS011;24035;48.900;9.188;2022-08-01T14:13:48;4.72;;;1.63;;
38238;SDS011;24035;48.900;9.188;2022-08-01T14:16:14;1.52;;;0.80;;
38238;SDS011;24035;48.900;9.188;2022-08-01T14:18:42;2.65;;;1.15;;
38238;SDS011;24035;48.900;9.188;2022-08-01T14:21:07;2.05;;;1.00;;
38238;SDS011;24035;48.900;9.188;2022-08-01T14:23:33;3.28;;;1.10;;
38238;SDS011;24035;48.900;9.188;2022-08-01T14:25:59;2.05;;;1.00;;
38238;SDS011;24035;48.900;9.188;2022-08-01T14:28:24;1.88;;;0.90;;
38238;SDS011;24035;48.900;9.188;2022-08-01T14:30:52;2.80;;;0.95;;
38238;SDS011;24035;48.900;9.188;2022-08-01T14:33:20;2.70;;;1.02;;
38238;SDS011;24035;48.900;9.188;2022-08-01T14:35:46;1.80;;;0.90;;
38238;SDS011;24035;48.900;9.188;2022-08-01T14:38:12;2.50;;;1.02;;
38238;SDS011;24035;48.900;9.188;2022-08-01T14:40:38;2.42;;;0.98;;
38238;SDS011;24035;48.900;9.188;2022-08-01T14:43:04;1.42;;;0.70;;
38238;SDS011;24035;48.900;9.188;2022-08-01T14:45:29;2.97;;;0.85;;
38238;SDS011;24035;48.900;9.188;2022-08-01T14:47:55;2.88;;;1.10;;
38238;SDS011;24035;48.900;9.188;2022-08-01T14:50:21;2.35;;;0.95;;
38238;SDS011;24035;48.900;9.188;2022-08-01T14:52:47;2.42;;;0.95;;
38238;SDS011;24035;48.900;9.188;2022-08-01T14:55:13;2.65;;;1.20;;
38238;SDS011;24035;48.900;9.188;2022-08-01T14:57:39;2.97;;;0.93;;
38238;SDS011;24035;48.900;9.188;2022-08-01T15:00:06;1.52;;;0.80;;
38238;SDS011;24035;48.900;9.188;2022-08-01T15:02:36;2.28;;;1.00;;
38238;SDS011;24035;48.900;9.188;2022-08-01T15:05:01;2.50;;;1.10;;
38238;SDS011;24035;48.900;9.188;2022-08-01T15:07:28;2.15;;;0.85;;
38238;SDS011;24035;48.900;9.188;2022-08-01T15:09:53;2.75;;;1.00;;
38238;SDS011;24035;48.900;9.188;2022-08-01T15:12:19;1.80;;;0.80;;
38238;SDS011;24035;48.900;9.188;2022-08-01T15:14:44;1.60;;;0.77;;
38238;SDS011;24035;48.900;9.188;2022-08-01T15:17:13;2.53;;;0.90;;
38238;SDS011;24035;48.900;9.188;2022-08-01T15:19:44;5.30;;;0.90;;
38238;SDS011;24035;48.900;9.188;2022-08-01T15:22:11;2.47;;;1.08;;
38238;SDS011;24035;48.900;9.188;2022-08-01T15:24:36;1.40;;;0.63;;
38238;SDS011;24035;48.900;9.188;2022-08-01T15:27:02;1.27;;;0.63;;
38238;SDS011;24035;48.900;9.188;2022-08-01T15:29:28;3.78;;;0.93;;
38238;SDS011;24035;48.900;9.188;2022-08-01T15:31:53;2.80;;;0.80;;
38238;SDS011;24035;48.900;9.188;2022-08-01T15:34:20;1.73;;;0.70;;
38238;SDS011;24035;48.900;9.188;2022-08-01T15:36:46;1.52;;;0.63;;
38238;SDS011;24035;48.900;9.188;2022-08-01T15:39:12;1.98;;;0.80;;
38238;SDS011;24035;48.900;9.188;2022-08-01T15:41:38;1.75;;;0.80;;
38238;SDS011;24035;48.900;9.188;2022-08-01T15:44:04;2.97;;;0.70;;
38238;SDS011;24035;48.900;9.188;2022-08-01T15:46:30;1.70;;;0.70;;
38238;SDS011;24035;48.900;9.188;2022-08-01T15:48:55;1.42;;;0.68;;
38238;SDS011;24035;48.900;9.188;2022-08-01T15:51:21;1.77;;;0.63;;
38238;SDS011;24035;48.900;9.188;2022-08-01T15:53:47;1.77;;;0.80;;
38238;SDS011;24035;48.900;9.188;2022-08-01T15:56:13;3.08;;;1.35;;
38238;SDS011;24035;48.900;9.188;2022-08-01T15:58:38;2.42;;;1.02;;
38238;SDS011;24035;48.900;9.188;2022-08-01T16:01:04;2.83;;;0.60;;
38238;SDS011;24035;48.900;9.188;2022-08-01T16:03:30;1.67;;;0.60;;
38238;SDS011;24035;48.900;9.188;2022-08-01T16:05:55;1.50;;;0.70;;
38238;SDS011;24035;48.900;9.188;2022-08-01T16:08:21;1.05;;;0.55;;
38238;SDS011;24035;48.900;9.188;2022-08-01T16:10:47;1.60;;;0.60;;
38238;SDS011;24035;48.900;9.188;2022-08-01T16:13:13;1.70;;;0.55;;
38238;SDS011;24035;48.900;9.188;2022-08-01T16:15:39;1.70;;;0.70;;
38238;SDS011;24035;48.900;9.188;2022-08-01T16:23:32;1.27;;;0.60;;
38238;SDS011;24035;48.900;9.188;2022-08-01T16:25:57;1.23;;;0.60;;
38238;SDS011;24035;48.900;9.188;2022-08-01T16:28:23;1.85;;;0.60;;
38238;SDS011;24035;48.900;9.188;2022-08-01T16:30:49;1.30;;;0.57;;